Time;durP1;ratioP1;P1;durP2;ratioP2;P2;SDS_P1;SDS_P2;PMS_P1;PMS_P2;Temp;Humidity;BMP_temperature;BMP_pressure;BME280_temperature;BME280_humidity;BME280_pressure;Samples;Min_cycle;Max_cycle;Signal;HPM_P1;HPM_P2
2021/12/17 00:04:38;;;;;;;19.20;6.00;;;;;;;4.63;85.88;101604.96;87141;1290;99769;-63
2021/12/17 00:06:48;;;;;;;18.60;5.80;;;;;;;4.63;86.00;101599.39;87799;1284;86131;-62
2021/12/17 00:08:59;;;;;;;18.90;5.20;;;;;;;4.67;85.96;101593.39;87738;1288;94839;-62
2021/12/17 00:11:11;;;;;;;17.90;5.50;;;;;;;4.65;86.11;101594.96;87871;1282;82271;-62
2021/12/17 00:13:21;;;;;;;23.30;7.20;;;;;;;4.67;86.01;101594.94;87875;1287;81084;-62
2021/12/17 00:15:30;;;;;;;15.50;6.00;;;;;;;4.67;85.89;101594.29;87880;1284;98874;-61
2021/12/17 00:17:50;;;;;;;17.30;6.50;;;;;;;4.69;85.93;101589.67;87800;1287;88478;-64
2021/12/17 00:20:41;;;;;;;19.80;6.60;;;;;;;4.68;85.86;101587.26;87856;1282;93997;-63
2021/12/17 00:50:25;;;;;;;15.70;6.00;;;;;;;4.52;86.01;101615.13;87887;1286;83449;-63
2021/12/17 00:52:40;;;;;;;19.70;5.60;;;;;;;4.45;86.00;101614.05;87750;1288;100029;-62
2021/12/17 00:54:50;;;;;;;20.30;6.00;;;;;;;4.44;85.97;101611.84;87877;1286;87388;-63
2021/12/17 00:57:01;;;;;;;19.20;5.50;;;;;;;4.43;85.94;101609.96;87665;1282;95618;-64
2021/12/17 00:59:13;;;;;;;23.80;6.10;;;;;;;4.40;85.94;101607.88;87877;1276;79290;-62
2021/12/17 01:01:23;;;;;;;12.30;4.70;;;;;;;4.41;86.02;101606.75;87780;1286;81078;-62
2021/12/17 01:03:35;;;;;;;18.00;4.80;;;;;;;4.45;86.02;101603.58;87887;1287;99904;-63
2021/12/17 01:05:44;;;;;;;12.60;4.40;;;;;;;4.47;86.14;101598.19;87772;1287;88161;-63
2021/12/17 01:07:59;;;;;;;17.40;5.30;;;;;;;4.50;86.14;101599.88;87796;1285;96046;-62
2021/12/17 01:10:17;;;;;;;20.70;6.60;;;;;;;4.53;86.11;101600.02;87907;1286;79377;-61
2021/12/17 01:12:29;;;;;;;19.10;6.10;;;;;;;4.52;86.09;101595.67;87920;1284;82098;-61
2021/12/17 01:14:40;;;;;;;22.00;5.90;;;;;;;4.51;86.00;101607.37;87727;1284;98185;-61
2021/12/17 01:16:52;;;;;;;17.30;5.70;;;;;;;4.47;85.94;101608.20;87761;1283;90289;-62
2021/12/17 01:19:11;;;;;;;26.00;8.80;;;;;;;4.38;85.98;101610.00;87764;1288;95564;-63
2021/12/17 01:21:29;;;;;;;24.60;5.80;;;;;;;4.36;86.00;101604.27;87868;1286;78246;-63
2021/12/17 01:36:32;;;;;;;16.40;5.00;;;;;;;4.51;85.98;101603.39;86914;1294;88942;-62
2021/12/17 01:39:39;;;;;;;18.90;5.00;;;;;;;4.52;86.09;101606.54;87031;1293;95163;-63
2021/12/17 01:44:08;;;;;;;17.30;5.30;;;;;;;4.52;85.92;101612.98;86897;1297;83320;-61
2021/12/17 01:46:24;;;;;;;17.90;5.30;;;;;;;4.49;86.06;101616.20;86929;1293;97603;-63
2021/12/17 01:48:50;;;;;;;17.60;4.90;;;;;;;4.44;85.96;101616.10;87533;1289;89217;-62
2021/12/17 01:56:16;;;;;;;22.40;5.70;;;;;;;4.41;86.06;101614.88;87897;1284;81753;-63
2021/12/17 02:00:56;;;;;;;19.30;5.00;;;;;;;4.39;86.12;101603.13;87914;1284;88699;-62
2021/12/17 02:03:09;;;;;;;13.90;4.70;;;;;;;4.39;86.21;101602.06;87751;1285;96490;-62
2021/12/17 02:05:22;;;;;;;20.70;6.00;;;;;;;4.38;86.28;101598.41;87881;1282;81049;-65
2021/12/17 02:07:34;;;;;;;21.50;5.40;;;;;;;4.45;86.09;101594.80;87900;1286;82220;-61
2021/12/17 02:20:09;;;;;;;16.80;5.00;;;;;;;4.37;86.12;101579.77;87891;1282;80615;-65
2021/12/17 02:32:11;;;;;;;18.60;5.00;;;;;;;4.50;86.27;101575.99;87888;1283;83571;-62
2021/12/17 02:34:35;;;;;;;;;;;;;;;4.49;86.38;101571.83;87917;1285;95235;-63
2021/12/17 02:36:50;;;;;;;16.90;5.50;;;;;;;4.49;86.11;101565.02;87860;1286;87505;-66
2021/12/17 02:39:24;;;;;;;14.20;4.50;;;;;;;4.51;86.08;101565.43;87865;1284;93149;-62
2021/12/17 02:46:33;;;;;;;19.10;4.80;;;;;;;4.32;86.19;101554.27;88101;1279;97988;-62
2021/12/17 02:48:44;;;;;;;14.90;4.60;;;;;;;4.30;86.10;101557.14;88112;1278;88108;-61
2021/12/17 02:50:56;;;;;;;16.70;4.40;;;;;;;4.28;86.11;101561.36;88089;1278;93509;-64
2021/12/17 02:53:08;;;;;;;18.40;4.80;;;;;;;4.23;86.27;101559.11;88071;1282;79227;-62
2021/12/17 02:55:19;;;;;;;20.70;4.90;;;;;;;4.27;86.25;101551.35;88115;1279;83613;-63
2021/12/17 02:57:29;;;;;;;21.10;5.20;;;;;;;4.28;86.28;101552.64;88090;1278;97125;-63
2021/12/17 02:59:39;;;;;;;16.40;4.40;;;;;;;4.29;86.25;101560.79;88118;1279;87021;-63
2021/12/17 03:01:49;;;;;;;20.70;5.10;;;;;;;4.36;86.42;101563.08;88139;1279;93983;-63
2021/12/17 03:04:02;;;;;;;20.80;5.20;;;;;;;4.37;86.39;101561.92;88111;1278;78429;-63
2021/12/17 03:06:15;;;;;;;20.00;5.70;;;;;;;4.39;86.34;101564.45;88093;1278;82718;-63
2021/12/17 03:08:29;;;;;;;20.40;5.40;;;;;;;4.41;86.36;101562.11;88113;1278;96237;-62
2021/12/17 03:10:38;;;;;;;16.40;4.60;;;;;;;4.44;86.31;101555.27;88078;1278;87692;-63
2021/12/17 03:12:50;;;;;;;18.90;5.20;;;;;;;4.41;86.24;101558.77;88121;1275;92996;-63
2021/12/17 03:15:11;;;;;;;18.60;4.20;;;;;;;4.36;86.20;101556.44;88096;1278;81378;-62
2021/12/17 03:17:36;;;;;;;21.80;5.20;;;;;;;4.31;86.23;101554.41;88083;1278;82257;-62
2021/12/17 03:24:35;;;;;;;23.00;5.30;;;;;;;4.30;86.29;101546.97;88084;1278;92809;-62
2021/12/17 03:26:44;;;;;;;19.70;5.10;;;;;;;4.31;86.34;101547.93;88078;1278;82191;-62
2021/12/17 03:28:56;;;;;;;14.40;4.30;;;;;;;4.36;86.27;101546.80;88097;1278;79758;-62
2021/12/17 03:31:06;;;;;;;16.50;4.00;;;;;;;4.42;86.34;101545.30;88006;1280;95406;-62
2021/12/17 03:33:16;;;;;;;16.90;5.30;;;;;;;4.44;86.35;101541.59;88143;1278;88655;-64
2021/12/17 03:35:25;;;;;;;14.30;4.10;;;;;;;4.43;86.26;101527.73;88088;1282;94307;-63
2021/12/17 03:37:34;;;;;;;16.80;4.40;;;;;;;4.43;86.22;101523.61;88073;1278;78135;-62
2021/12/17 03:39:44;;;;;;;18.70;4.90;;;;;;;4.45;86.23;101526.83;88135;1279;81506;-62
2021/12/17 03:41:55;;;;;;;23.10;4.70;;;;;;;4.48;86.17;101528.73;88131;1280;96888;-63
2021/12/17 03:44:10;;;;;;;19.10;5.00;;;;;;;4.45;86.04;101531.29;88104;1276;86832;-62
2021/12/17 03:46:20;;;;;;;19.10;5.40;;;;;;;4.38;86.14;101535.29;88117;1278;94160;-62
2021/12/17 03:48:31;;;;;;;15.80;3.90;;;;;;;4.29;86.11;101540.61;88074;1278;79747;-64
2021/12/17 03:50:41;;;;;;;20.60;5.30;;;;;;;4.29;86.10;101532.06;88094;1271;80496;-66
2021/12/17 03:52:50;;;;;;;14.00;3.80;;;;;;;4.33;86.09;101531.20;88070;1278;97190;-66
2021/12/17 03:55:03;;;;;;;24.60;4.20;;;;;;;4.33;86.06;101528.71;88101;1279;88982;-63
2021/12/17 03:57:17;;;;;;;17.10;3.80;;;;;;;4.34;86.09;101522.21;88056;1275;93441;-63
2021/12/17 03:59:26;;;;;;;15.20;4.20;;;;;;;4.31;86.17;101521.94;88090;1278;77877;-63
2021/12/17 04:01:35;;;;;;;20.20;4.20;;;;;;;4.33;86.08;101516.77;88129;1282;80749;-64
2021/12/17 04:03:47;;;;;;;15.80;4.20;;;;;;;4.31;86.10;101522.33;88099;1276;96561;-63
2021/12/17 04:05:56;;;;;;;15.70;4.00;;;;;;;4.34;85.94;101524.55;88090;1278;87937;-64
2021/12/17 04:08:06;;;;;;;19.30;4.40;;;;;;;4.30;86.08;101520.62;88058;1278;94445;-62
2021/12/17 04:10:19;;;;;;;19.10;4.50;;;;;;;4.24;85.94;101517.35;88084;1282;78919;-62
2021/12/17 04:12:47;;;;;;;12.20;3.70;;;;;;;4.15;85.95;101518.02;88132;1279;81022;-62
2021/12/17 04:15:01;;;;;;;15.70;4.40;;;;;;;4.16;85.89;101514.52;88100;1278;97713;-63
2021/12/17 04:17:20;;;;;;;16.60;4.10;;;;;;;4.16;85.94;101510.27;88118;1278;88185;-63
2021/12/17 04:19:30;;;;;;;17.50;3.80;;;;;;;4.15;85.99;101511.39;88073;1278;95685;-62
2021/12/17 04:21:43;;;;;;;16.20;4.20;;;;;;;4.14;86.06;101510.10;88091;1282;81608;-63
2021/12/17 04:23:55;;;;;;;22.00;4.80;;;;;;;4.17;86.09;101516.45;88107;1278;81767;-63
2021/12/17 04:26:08;;;;;;;15.20;3.60;;;;;;;4.15;86.05;101519.80;88112;1278;96285;-63
2021/12/17 04:28:19;;;;;;;16.20;4.10;;;;;;;4.20;86.05;101521.70;88097;1276;85736;-63
2021/12/17 04:30:28;;;;;;;18.50;4.40;;;;;;;4.29;86.10;101522.08;88106;1278;94898;-63
2021/12/17 04:32:38;;;;;;;15.00;3.90;;;;;;;4.32;85.98;101518.81;88113;1279;78357;-62
2021/12/17 04:34:47;;;;;;;20.40;5.00;;;;;;;4.29;85.80;101520.15;88112;1278;82669;-62
2021/12/17 04:36:57;;;;;;;16.30;3.80;;;;;;;4.23;85.88;101524.16;88106;1279;98289;-62
2021/12/17 04:39:06;;;;;;;15.00;3.60;;;;;;;4.24;85.86;101520.73;88099;1281;86641;-63
2021/12/17 04:43:57;;;;;;;17.70;4.10;;;;;;;4.10;85.94;101524.28;87870;1281;78341;-63
2021/12/17 04:46:21;;;;;;;17.30;4.20;;;;;;;4.04;85.96;101526.33;88068;1280;82369;-63
2021/12/17 04:58:17;;;;;;;17.30;3.50;;;;;;;4.18;86.08;101533.66;88081;1276;81007;-63
2021/12/17 05:00:30;;;;;;;16.80;3.80;;;;;;;4.14;86.00;101531.09;88105;1279;96405;-63
2021/12/17 05:02:43;;;;;;;15.10;3.60;;;;;;;4.10;86.02;101530.84;88089;1281;87038;-63
2021/12/17 05:04:54;;;;;;;12.80;3.80;;;;;;;4.08;86.05;101533.34;88050;1280;94200;-63
2021/12/17 05:07:06;;;;;;;22.70;5.20;;;;;;;4.07;86.02;101546.30;88085;1279;77352;-64
2021/12/17 05:09:25;;;;;;;17.00;4.30;;;;;;;4.05;86.12;101553.52;88091;1280;79448;-64
2021/12/17 05:19:10;;;;;;;14.20;3.80;;;;;;;4.02;86.11;101568.63;88065;1280;80828;-62
2021/12/17 05:21:24;;;;;;;16.60;4.50;;;;;;;4.06;86.09;101564.53;88036;1283;80389;-63
2021/12/17 05:23:39;;;;;;;14.20;3.80;;;;;;;4.09;86.11;101568.21;88094;1280;98971;-63
2021/12/17 05:25:52;;;;;;;15.20;4.00;;;;;;;4.11;86.08;101569.86;88046;1276;87351;-62
2021/12/17 05:28:02;;;;;;;17.20;4.50;;;;;;;4.08;86.01;101567.20;88067;1280;95185;-63
2021/12/17 05:30:15;;;;;;;14.60;4.10;;;;;;;4.11;86.05;101563.64;88091;1279;80588;-63
2021/12/17 05:32:28;;;;;;;16.00;4.00;;;;;;;4.14;85.98;101567.96;88012;1282;80784;-62
2021/12/17 05:34:37;;;;;;;15.50;4.10;;;;;;;4.09;85.95;101570.54;88063;1281;97467;-62
2021/12/17 05:36:47;;;;;;;19.20;4.60;;;;;;;4.11;86.04;101569.63;88132;1279;86606;-63
2021/12/17 05:38:56;;;;;;;15.00;3.70;;;;;;;4.08;86.02;101570.05;88074;1281;94290;-62
2021/12/17 05:41:05;;;;;;;18.80;4.50;;;;;;;4.08;85.97;101568.48;88065;1280;78876;-62
2021/12/17 05:43:16;;;;;;;13.60;4.00;;;;;;;4.07;85.89;101569.44;88102;1281;82110;-64
2021/12/17 05:45:37;;;;;;;16.40;4.40;;;;;;;4.04;85.81;101565.04;88091;1283;97982;-63
2021/12/17 05:47:47;;;;;;;15.20;4.30;;;;;;;4.02;85.90;101561.11;87929;1281;87422;-62
2021/12/17 05:49:59;;;;;;;14.80;4.80;;;;;;;4.03;85.86;101552.46;88072;1281;94080;-64
2021/12/17 05:52:12;;;;;;;14.60;4.90;;;;;;;4.04;85.86;101544.75;88083;1281;78860;-63
2021/12/17 05:54:25;;;;;;;16.00;5.20;;;;;;;4.01;85.91;101541.92;88036;1281;81222;-63
2021/12/17 05:56:34;;;;;;;14.60;4.00;;;;;;;3.99;85.92;101537.98;88023;1282;98009;-62
2021/12/17 05:58:46;;;;;;;18.20;4.60;;;;;;;4.03;85.90;101535.50;88084;1281;88670;-63
2021/12/17 06:00:59;;;;;;;16.60;4.30;;;;;;;4.06;85.93;101537.81;88082;1278;94063;-62
2021/12/17 06:03:08;;;;;;;17.10;4.90;;;;;;;4.06;85.86;101533.86;88107;1281;77327;-63
2021/12/17 06:05:18;;;;;;;16.90;4.80;;;;;;;4.07;85.79;101538.77;88097;1277;81570;-63
2021/12/17 06:07:31;;;;;;;15.30;4.40;;;;;;;4.06;85.90;101544.77;88101;1281;98606;-63
2021/12/17 06:09:41;;;;;;;19.70;5.00;;;;;;;4.01;85.79;101551.56;88085;1270;86412;-62
2021/12/17 06:11:50;;;;;;;12.10;4.30;;;;;;;3.98;85.70;101553.38;88111;1278;92968;-62
2021/12/17 06:14:00;;;;;;;16.50;4.00;;;;;;;3.97;85.78;101556.34;88088;1281;81436;-64
2021/12/17 06:16:09;;;;;;;17.80;4.10;;;;;;;3.92;85.82;101555.50;88101;1272;81115;-63
2021/12/17 06:18:19;;;;;;;15.00;4.80;;;;;;;3.94;85.79;101563.55;88076;1283;98941;-63
2021/12/17 06:20:29;;;;;;;14.60;5.00;;;;;;;3.93;85.85;101568.36;88085;1279;86503;-63
2021/12/17 06:22:39;;;;;;;13.30;4.60;;;;;;;3.94;85.83;101562.77;88090;1273;93706;-63
2021/12/17 06:24:48;;;;;;;13.90;4.30;;;;;;;3.93;85.90;101563.62;88079;1280;78991;-63
2021/12/17 06:26:57;;;;;;;19.00;4.50;;;;;;;3.92;86.02;101564.02;88105;1280;81111;-63
2021/12/17 06:29:06;;;;;;;20.80;6.80;;;;;;;3.94;86.00;101570.08;88072;1279;96698;-62
2021/12/17 06:31:16;;;;;;;19.80;5.70;;;;;;;3.95;86.05;101567.02;88056;1279;88839;-63
2021/12/17 06:33:25;;;;;;;20.40;5.40;;;;;;;3.92;85.92;101568.86;88081;1279;94852;-62
2021/12/17 06:35:34;;;;;;;18.60;4.90;;;;;;;3.89;85.87;101563.23;88084;1282;77152;-63
2021/12/17 06:37:44;;;;;;;21.30;5.70;;;;;;;3.87;85.98;101564.05;88107;1281;80813;-65
2021/12/17 06:39:54;;;;;;;13.30;4.50;;;;;;;3.86;85.95;101566.30;88015;1280;97461;-64
2021/12/17 06:42:04;;;;;;;18.80;6.50;;;;;;;3.84;85.94;101560.73;88099;1281;89089;-65
2021/12/17 06:44:22;;;;;;;18.10;5.40;;;;;;;3.83;85.82;101556.55;88075;1280;95139;-62
2021/12/17 06:46:45;;;;;;;18.60;5.20;;;;;;;3.76;85.71;101551.55;88065;1279;80319;-66
2021/12/17 06:49:15;;;;;;;20.40;5.90;;;;;;;3.77;85.81;101547.94;88105;1278;80783;-68
2021/12/17 06:57:08;;;;;;;21.10;4.90;;;;;;;3.84;85.95;101535.63;88049;1281;95158;-64
2021/12/17 06:59:13;;;;;;;219.20;130.30;;;;;;;3.85;85.95;101536.77;88047;1279;79911;-63
2021/12/17 07:06:38;;;;;;;16.90;7.10;;;;;;;3.92;86.02;101546.35;87980;1281;89476;-68
2021/12/17 07:11:48;;;;;;;12.60;4.80;;;;;;;3.91;85.97;101563.77;87857;1284;79349;-63
2021/12/17 07:24:46;;;;;;;12.80;5.00;;;;;;;4.01;85.84;101569.55;87624;1288;79249;-62
2021/12/17 07:34:12;;;;;;;11.00;4.20;;;;;;;4.00;85.68;101591.59;87775;1283;94226;-66
2021/12/17 07:36:22;;;;;;;19.40;5.40;;;;;;;3.91;85.76;101595.27;87791;1283;78908;-63
2021/12/17 07:38:47;;;;;;;16.60;4.90;;;;;;;3.87;85.82;101595.59;87817;1285;82163;-63
2021/12/17 07:40:59;;;;;;;10.90;4.10;;;;;;;3.87;85.96;101596.66;87760;1286;98941;-63
2021/12/17 07:43:14;;;;;;;13.90;4.80;;;;;;;3.86;85.97;101598.91;87826;1285;86598;-63
2021/12/17 07:45:27;;;;;;;15.70;4.90;;;;;;;3.85;86.06;101597.86;87807;1285;95126;-63
2021/12/17 07:47:36;;;;;;;17.40;4.70;;;;;;;3.89;85.96;101597.39;87793;1287;79991;-66
2021/12/17 07:49:46;;;;;;;14.10;4.40;;;;;;;3.89;85.99;101601.14;87849;1285;81153;-67
2021/12/17 07:51:55;;;;;;;13.70;5.30;;;;;;;3.91;85.98;101601.30;88076;1283;98534;-68
2021/12/17 07:54:07;;;;;;;15.50;5.70;;;;;;;3.94;86.03;101607.54;88063;1281;89262;-67
2021/12/17 07:56:23;;;;;;;20.20;5.60;;;;;;;3.96;85.98;101612.70;88089;1281;95384;-72
2021/12/17 07:58:32;;;;;;;14.50;5.20;;;;;;;4.01;85.79;101617.50;88086;1276;79112;-64
2021/12/17 08:00:42;;;;;;;14.40;5.40;;;;;;;4.04;85.93;101623.86;88077;1281;79703;-63
2021/12/17 08:02:51;;;;;;;15.50;4.70;;;;;;;4.05;85.85;101633.91;88059;1282;99316;-65
2021/12/17 08:05:00;;;;;;;16.60;5.20;;;;;;;4.05;85.86;101632.39;88077;1274;87464;-66
2021/12/17 08:07:09;;;;;;;17.80;4.30;;;;;;;4.04;85.86;101638.99;88086;1282;95579;-65
2021/12/17 08:09:19;;;;;;;21.80;5.30;;;;;;;4.07;85.87;101638.80;88076;1281;78741;-65
2021/12/17 08:11:37;;;;;;;16.30;6.30;;;;;;;4.09;85.83;101637.19;88118;1279;82736;-65
2021/12/17 08:13:47;;;;;;;18.50;5.40;;;;;;;4.08;85.80;101642.44;88070;1277;97659;-64
2021/12/17 08:18:42;;;;;;;16.50;5.40;;;;;;;4.10;85.85;101652.11;88064;1278;95090;-64
2021/12/17 08:26:17;;;;;;;13.80;5.40;;;;;;;4.05;85.78;101647.12;87678;1284;97734;-64
2021/12/17 08:28:49;;;;;;;19.90;6.50;;;;;;;4.06;85.89;101651.66;87689;1284;87880;-64
2021/12/17 08:30:59;;;;;;;16.50;5.20;;;;;;;4.12;85.78;101650.34;87553;1281;95637;-66
2021/12/17 08:33:08;;;;;;;16.10;5.40;;;;;;;4.11;85.70;101656.49;88092;1278;79467;-63
2021/12/17 08:35:19;;;;;;;16.80;5.60;;;;;;;4.09;85.81;101655.90;88094;1278;81675;-63
2021/12/17 08:37:29;;;;;;;17.00;5.60;;;;;;;4.14;85.64;101657.84;88083;1278;99181;-64
2021/12/17 08:39:42;;;;;;;16.60;5.90;;;;;;;4.14;85.65;101666.06;88089;1278;88291;-63
2021/12/17 08:41:54;;;;;;;21.50;6.30;;;;;;;4.15;85.61;101665.48;88106;1282;94907;-62
2021/12/17 08:44:03;;;;;;;17.60;6.00;;;;;;;4.18;85.68;101661.48;88073;1278;80346;-63
2021/12/17 08:46:15;;;;;;;15.90;5.40;;;;;;;4.19;85.65;101664.23;88089;1278;82390;-61
2021/12/17 08:48:28;;;;;;;14.30;5.70;;;;;;;4.17;85.68;101660.66;88068;1278;98884;-62
2021/12/17 08:50:40;;;;;;;15.50;6.30;;;;;;;4.11;85.70;101660.73;88095;1279;88725;-62
2021/12/17 08:52:50;;;;;;;19.50;6.90;;;;;;;4.09;85.64;101660.71;88026;1263;95100;-64
2021/12/17 08:55:00;;;;;;;17.20;6.30;;;;;;;4.12;85.76;101659.74;88099;1279;82269;-64
2021/12/17 08:57:10;;;;;;;20.80;8.40;;;;;;;4.22;85.70;101653.33;88079;1278;80688;-64
2021/12/17 08:59:21;;;;;;;16.80;6.10;;;;;;;4.27;85.68;101642.75;88086;1282;98215;-63
2021/12/17 09:01:30;;;;;;;22.50;6.20;;;;;;;4.27;85.52;101640.49;88090;1278;87455;-61
2021/12/17 09:03:39;;;;;;;14.60;5.80;;;;;;;4.28;85.50;101640.38;88079;1280;95543;-62
2021/12/17 09:05:49;;;;;;;17.50;6.20;;;;;;;4.31;85.52;101637.29;88055;1278;78478;-62
2021/12/17 09:07:58;;;;;;;16.60;5.10;;;;;;;4.40;85.44;101629.25;87990;1281;79629;-63
2021/12/17 09:10:18;;;;;;;14.40;5.70;;;;;;;4.43;85.47;101627.56;88068;1274;99323;-62
2021/12/17 09:12:28;;;;;;;18.00;6.50;;;;;;;4.49;85.43;101626.19;88099;1278;87426;-64
2021/12/17 09:14:37;;;;;;;19.40;7.00;;;;;;;4.47;85.26;101628.52;88090;1282;92968;-63
2021/12/17 09:16:47;;;;;;;19.10;7.10;;;;;;;4.51;85.21;101629.29;88137;1278;77033;-63
2021/12/17 09:18:59;;;;;;;20.80;7.50;;;;;;;4.53;85.30;101629.82;88126;1278;82566;-63
2021/12/17 09:21:11;;;;;;;20.60;6.50;;;;;;;4.54;85.31;101626.34;88076;1278;99078;-64
2021/12/17 09:23:23;;;;;;;18.20;7.10;;;;;;;4.52;85.29;101628.11;88103;1282;89290;-63
2021/12/17 09:25:33;;;;;;;19.50;7.40;;;;;;;4.56;85.23;101625.64;88069;1282;94757;-62
2021/12/17 09:27:42;;;;;;;15.00;6.60;;;;;;;4.58;85.08;101616.77;88077;1279;79155;-63
2021/12/17 09:29:52;;;;;;;13.90;6.20;;;;;;;4.60;85.13;101616.25;88089;1278;83362;-62
2021/12/17 09:32:01;;;;;;;14.20;5.90;;;;;;;4.62;85.10;101616.95;88085;1282;98776;-63
2021/12/17 09:34:10;;;;;;;16.20;5.70;;;;;;;4.62;85.17;101610.41;88097;1278;86105;-62
2021/12/17 09:36:22;;;;;;;13.00;5.50;;;;;;;4.60;85.03;101606.58;88072;1278;94857;-64
2021/12/17 09:38:32;;;;;;;17.60;6.50;;;;;;;4.65;84.99;101607.41;88114;1278;79355;-61
2021/12/17 09:40:44;;;;;;;17.90;7.40;;;;;;;4.71;85.00;101610.19;87406;1282;958894;-62
2021/12/17 09:42:53;;;;;;;15.70;6.70;;;;;;;4.70;85.02;101610.80;88098;1278;99242;-63
2021/12/17 09:45:04;;;;;;;13.50;6.40;;;;;;;4.78;84.99;101605.37;88113;1278;88416;-65
2021/12/17 09:47:13;;;;;;;18.90;7.20;;;;;;;4.77;84.95;101609.48;88101;1278;94236;-63
2021/12/17 09:49:23;;;;;;;19.50;7.60;;;;;;;4.83;84.93;101610.87;88057;1275;77370;-63
2021/12/17 09:51:35;;;;;;;19.00;7.70;;;;;;;4.92;84.80;101602.45;88119;1274;80393;-67
2021/12/17 09:53:46;;;;;;;16.00;6.60;;;;;;;4.88;84.78;101607.44;88085;1278;99317;-63
2021/12/17 09:56:00;;;;;;;17.50;7.60;;;;;;;4.87;84.62;101607.63;88110;1279;88682;-62
2021/12/17 09:58:12;;;;;;;22.00;6.60;;;;;;;4.86;84.55;101605.27;88125;1278;95321;-62
2021/12/17 10:00:28;;;;;;;15.90;6.60;;;;;;;4.83;84.46;101601.73;88072;1277;78503;-62
2021/12/17 10:02:41;;;;;;;15.80;5.90;;;;;;;4.88;84.56;101595.04;88118;1278;83043;-63
2021/12/17 10:04:57;;;;;;;16.90;6.50;;;;;;;4.98;84.36;101591.89;88098;1279;97627;-63
2021/12/17 10:07:22;;;;;;;17.80;6.50;;;;;;;5.04;84.45;101590.85;88109;1278;88714;-61
2021/12/17 10:09:46;;;;;;;14.60;6.20;;;;;;;5.09;84.43;101594.05;88090;1282;94674;-63
2021/12/17 10:12:10;;;;;;;14.30;5.40;;;;;;;5.13;84.47;101595.11;88109;1282;82058;-63
2021/12/17 10:14:24;;;;;;;15.90;6.20;;;;;;;5.22;84.25;101595.48;88098;1280;82405;-63
2021/12/17 10:16:42;;;;;;;15.60;6.70;;;;;;;5.25;84.15;101596.63;88106;1278;98782;-63
2021/12/17 10:18:53;;;;;;;16.90;7.80;;;;;;;5.42;84.35;101602.05;88127;1278;88561;-63
2021/12/17 10:21:06;;;;;;;17.20;8.40;;;;;;;5.49;84.13;101603.79;88113;1279;93267;-64
2021/12/17 10:23:16;;;;;;;15.10;6.00;;;;;;;5.54;84.14;101604.81;88135;1278;77434;-64
2021/12/17 10:25:26;;;;;;;16.10;5.70;;;;;;;5.56;84.25;101601.05;88101;1278;82026;-62
2021/12/17 10:27:39;;;;;;;16.20;5.70;;;;;;;5.57;83.84;101601.32;88136;1282;97675;-63
2021/12/17 10:29:49;;;;;;;14.80;5.50;;;;;;;5.57;83.73;101604.88;88105;1274;86702;-62
2021/12/17 10:32:01;;;;;;;17.60;6.50;;;;;;;5.50;83.63;101601.91;88125;1278;94358;-63
2021/12/17 10:34:19;;;;;;;10.50;5.00;;;;;;;5.52;83.45;101601.23;88073;1279;81029;-63
2021/12/17 10:36:37;;;;;;;17.00;5.70;;;;;;;5.54;83.51;101601.38;88098;1278;80569;-63
2021/12/17 10:38:47;;;;;;;20.90;5.80;;;;;;;5.65;83.44;101595.78;88098;1282;99455;-65
2021/12/17 10:41:03;;;;;;;13.80;5.00;;;;;;;5.69;83.41;101591.70;88094;1278;86456;-62
2021/12/17 10:43:25;;;;;;;13.70;4.70;;;;;;;5.71;83.39;101594.38;88111;1278;95121;-62
2021/12/17 10:45:46;;;;;;;16.30;5.60;;;;;;;5.72;83.20;101593.46;88103;1274;77220;-66
2021/12/17 10:50:52;;;;;;;13.90;6.10;;;;;;;5.80;83.02;101584.13;87691;1286;99439;-64
2021/12/17 10:53:10;;;;;;;15.30;5.80;;;;;;;5.84;83.01;101580.56;87740;1288;88743;-61
2021/12/17 10:55:23;;;;;;;17.20;6.50;;;;;;;5.79;82.87;101578.52;88033;1279;94527;-62
2021/12/17 10:57:35;;;;;;;17.40;6.20;;;;;;;5.69;82.75;101577.41;88127;1279;78861;-62
2021/12/17 10:59:50;;;;;;;14.90;5.50;;;;;;;5.63;82.55;101574.32;88093;1278;80826;-62
2021/12/17 11:02:05;;;;;;;16.40;5.60;;;;;;;5.57;82.53;101571.62;88108;1282;98802;-63
2021/12/17 11:04:23;;;;;;;13.40;5.00;;;;;;;5.56;82.66;101574.94;88116;1282;85696;-64
2021/12/17 11:06:52;;;;;;;16.70;5.90;;;;;;;5.72;82.60;101573.00;88082;1278;94675;-62
2021/12/17 11:09:04;;;;;;;16.70;5.70;;;;;;;5.85;82.77;101576.81;88097;1279;80050;-63
2021/12/17 11:11:16;;;;;;;11.50;5.10;;;;;;;5.87;82.48;101571.42;88139;1271;81985;-63
2021/12/17 11:13:26;;;;;;;13.30;4.70;;;;;;;5.81;82.49;101564.88;88099;1278;99099;-61
2021/12/17 11:15:35;;;;;;;13.00;6.20;;;;;;;5.80;82.00;101563.63;88103;1279;88421;-62
2021/12/17 11:17:50;;;;;;;11.90;5.10;;;;;;;5.79;81.94;101560.10;88002;1283;95200;-62
2021/12/17 11:20:06;;;;;;;11.20;4.50;;;;;;;5.90;82.09;101552.00;88137;1273;78250;-62
2021/12/17 11:22:15;;;;;;;15.10;4.90;;;;;;;5.95;81.87;101550.73;88121;1282;83136;-62
2021/12/17 11:24:24;;;;;;;14.50;4.60;;;;;;;5.94;82.10;101544.02;88092;1278;96157;-62
2021/12/17 11:26:34;;;;;;;10.70;4.30;;;;;;;6.03;82.16;101551.29;88088;1282;89053;-63
2021/12/17 11:28:47;;;;;;;12.90;4.70;;;;;;;5.99;81.71;101565.72;88099;1278;94870;-62
2021/12/17 11:31:00;;;;;;;13.10;4.20;;;;;;;6.01;81.78;101565.08;88083;1282;77531;-63
2021/12/17 11:33:12;;;;;;;12.80;4.20;;;;;;;6.02;81.73;101560.80;88118;1278;82916;-63
2021/12/17 11:35:27;;;;;;;11.00;3.80;;;;;;;6.04;81.61;101562.08;88093;1282;97876;-62
2021/12/17 11:37:39;;;;;;;10.40;4.10;;;;;;;6.08;81.96;101552.59;88142;1278;86154;-62
2021/12/17 11:39:56;;;;;;;10.20;3.90;;;;;;;6.05;81.36;101552.55;88100;1282;95059;-62
2021/12/17 11:42:28;;;;;;;11.10;4.00;;;;;;;5.97;81.46;101553.77;88072;1282;80135;-63
2021/12/17 11:44:50;;;;;;;9.80;4.20;;;;;;;6.00;81.58;101554.23;88075;1276;81221;-65
2021/12/17 11:47:08;;;;;;;7.50;3.30;;;;;;;5.95;81.75;101564.67;88096;1282;98304;-62
2021/12/17 11:49:23;;;;;;;12.00;4.00;;;;;;;5.93;81.42;101565.18;88104;1278;89444;-61
2021/12/17 11:51:35;;;;;;;10.00;3.30;;;;;;;5.90;81.11;101563.88;88098;1278;95545;-63
2021/12/17 11:54:04;;;;;;;9.40;3.90;;;;;;;5.84;81.17;101568.44;88103;1278;78669;-64
2021/12/17 11:56:31;;;;;;;10.90;3.80;;;;;;;5.80;81.32;101567.71;88111;1280;81440;-65
2021/12/17 11:58:53;;;;;;;8.90;3.60;;;;;;;5.76;81.21;101570.38;88125;1278;99077;-62
2021/12/17 12:01:04;;;;;;;13.30;4.20;;;;;;;5.68;81.42;101579.09;88119;1278;87335;-62
2021/12/17 12:03:22;;;;;;;11.50;3.80;;;;;;;5.62;81.57;101576.23;88115;1279;93683;-64
2021/12/17 12:05:44;;;;;;;9.50;3.80;;;;;;;5.60;81.37;101573.91;88100;1280;79099;-62
2021/12/17 12:08:32;;;;;;;8.60;2.90;;;;;;;5.57;81.43;101568.76;88082;1279;82248;-63
2021/12/17 12:10:42;;;;;;;12.80;4.60;;;;;;;5.55;81.47;101566.45;88081;1278;98640;-62
2021/12/17 12:13:05;;;;;;;11.70;3.80;;;;;;;5.60;81.46;101560.82;88104;1279;89061;-63
2021/12/17 12:15:34;;;;;;;12.20;4.10;;;;;;;5.64;81.50;101555.84;88036;1280;93318;-64
2021/12/17 12:18:12;;;;;;;9.50;4.00;;;;;;;5.64;81.48;101564.23;88093;1281;77667;-61
2021/12/17 12:20:55;;;;;;;11.50;4.30;;;;;;;5.66;81.26;101565.14;88086;1284;81258;-62
2021/12/17 12:23:20;;;;;;;7.70;3.50;;;;;;;5.61;81.26;101564.73;88104;1281;98708;-63
2021/12/17 12:25:35;;;;;;;11.50;4.20;;;;;;;5.52;81.33;101554.41;88096;1283;86878;-64
2021/12/17 12:27:50;;;;;;;9.60;3.70;;;;;;;5.46;81.34;101550.95;88052;1283;95421;-64
2021/12/17 12:30:01;;;;;;;11.70;3.70;;;;;;;5.44;81.29;101548.65;88093;1283;80604;-63
2021/12/17 12:32:21;;;;;;;15.70;4.00;;;;;;;5.42;81.36;101551.12;87887;1281;81982;-63
2021/12/17 12:34:44;;;;;;;14.70;4.00;;;;;;;5.41;81.25;101547.45;88044;1281;98052;-62
2021/12/17 12:36:57;;;;;;;11.20;3.70;;;;;;;5.36;81.14;101545.48;88074;1281;87033;-62
2021/12/17 12:39:19;;;;;;;11.00;3.90;;;;;;;5.36;81.22;101546.79;88061;1276;94594;-63
2021/12/17 12:41:44;;;;;;;9.40;3.90;;;;;;;5.37;81.10;101541.91;88077;1283;80505;-62
2021/12/17 12:43:56;;;;;;;9.20;3.60;;;;;;;5.31;80.94;101540.02;88057;1283;82014;-63
2021/12/17 12:46:05;;;;;;;8.30;3.80;;;;;;;5.34;80.92;101541.26;88067;1276;97823;-60
2021/12/17 12:48:31;;;;;;;13.70;4.40;;;;;;;5.30;80.78;101543.89;88042;1279;86466;-61
2021/12/17 12:50:42;;;;;;;9.00;3.80;;;;;;;5.30;80.94;101538.69;88081;1281;92764;-61